Time;durP1;ratioP1;P1;durP2;ratioP2;P2;SDS_P1;SDS_P2;PMS_P1;PMS_P2;Temp;Humidity;BMP_temperature;BMP_pressure;BME280_temperature;BME280_humidity;BME280_pressure;Samples;Min_cycle;Max_cycle;Signal;HPM_P1;HPM_P2
2021/09/08 00:01:58;;;;;;;13.60;7.72;;;;;;;19.38;62.02;99023.25;5095796;28;20051;-61
2021/09/08 00:04:23;;;;;;;11.05;7.43;;;;;;;19.48;61.80;99021.09;5085835;28;20032;-61
2021/09/08 00:06:49;;;;;;;13.23;7.72;;;;;;;19.50;61.95;99034.09;5076743;28;20035;-60
2021/09/08 00:09:16;;;;;;;10.85;7.18;;;;;;;19.47;61.60;99035.28;5061752;28;20043;-61
2021/09/08 00:11:42;;;;;;;9.48;7.20;;;;;;;19.52;61.90;99037.34;5057579;28;20036;-61
2021/09/08 00:14:07;;;;;;;11.10;7.38;;;;;;;19.50;61.53;99031.44;5094479;28;20748;-61
2021/09/08 00:16:33;;;;;;;12.35;7.60;;;;;;;19.54;61.30;99030.06;5095528;28;20039;-61
2021/09/08 00:18:58;;;;;;;10.43;7.28;;;;;;;19.54;61.60;99030.06;5078787;28;20433;-61
2021/09/08 00:21:23;;;;;;;10.95;6.95;;;;;;;19.53;61.88;99031.03;5073808;28;20034;-61
2021/09/08 00:23:49;;;;;;;11.20;7.57;;;;;;;19.46;62.03;99022.28;5095080;28;20039;-62
2021/09/08 00:26:14;;;;;;;12.55;7.13;;;;;;;19.49;61.83;99021.91;5093162;28;20500;-61
2021/09/08 00:28:39;;;;;;;11.80;7.53;;;;;;;19.53;61.64;99020.50;5090980;28;20032;-61
2021/09/08 00:31:05;;;;;;;11.60;7.15;;;;;;;19.57;61.56;99017.28;5082391;28;20178;-61
2021/09/08 00:33:30;;;;;;;10.52;7.13;;;;;;;19.50;62.03;99005.88;5094662;28;20031;-61
2021/09/08 00:35:55;;;;;;;10.60;7.07;;;;;;;19.49;61.84;99006.88;5093229;28;20110;-61
2021/09/08 00:38:21;;;;;;;10.15;6.80;;;;;;;19.48;61.53;99015.00;5089975;28;20031;-62
2021/09/08 00:40:46;;;;;;;10.48;6.97;;;;;;;19.29;61.33;98972.47;5084215;28;20028;-60
2021/09/08 00:43:12;;;;;;;11.90;7.75;;;;;;;19.42;61.70;99013.94;5094358;28;20035;-61
2021/09/08 00:45:37;;;;;;;10.93;7.70;;;;;;;19.21;62.31;98976.06;5094817;28;20028;-61
2021/09/08 00:48:03;;;;;;;12.38;7.30;;;;;;;19.31;62.09;98996.84;5072050;28;20080;-60
2021/09/08 00:50:29;;;;;;;10.38;7.43;;;;;;;19.46;62.29;98996.75;5092440;28;20201;-61
2021/09/08 00:52:58;;;;;;;10.48;6.90;;;;;;;19.35;62.20;98973.56;5069345;28;20620;-61
2021/09/08 00:55:25;;;;;;;10.85;6.40;;;;;;;19.63;62.26;99018.34;5094025;28;20873;-61
2021/09/08 00:57:51;;;;;;;10.23;7.20;;;;;;;19.58;62.19;99004.91;5060535;28;20336;-61
2021/09/08 01:00:17;;;;;;;11.65;6.60;;;;;;;19.57;62.82;99012.03;5076166;28;20062;-61
2021/09/08 01:02:42;;;;;;;12.13;7.03;;;;;;;19.58;63.01;99018.09;5092718;28;20035;-61
2021/09/08 01:05:08;;;;;;;9.95;7.43;;;;;;;19.56;63.19;99012.22;5098594;28;20076;-61
2021/09/08 01:07:34;;;;;;;10.25;7.05;;;;;;;19.64;63.00;99019.16;5100717;28;20038;-61
2021/09/08 01:09:59;;;;;;;11.32;7.57;;;;;;;19.66;62.64;99017.97;5072506;28;20035;-61
2021/09/08 01:12:24;;;;;;;10.30;7.40;;;;;;;19.73;63.19;99024.13;5095736;28;20036;-61
2021/09/08 01:14:50;;;;;;;11.18;7.70;;;;;;;19.45;63.21;98983.75;5076740;28;20554;-61
2021/09/08 01:17:17;;;;;;;12.25;7.45;;;;;;;19.70;63.68;99011.28;5095525;28;20434;-61
2021/09/08 01:19:43;;;;;;;10.88;7.18;;;;;;;19.80;63.23;99010.16;5077801;28;20020;-61
2021/09/08 01:22:08;;;;;;;9.80;7.05;;;;;;;19.82;62.96;99013.41;5096070;28;20032;-61
2021/09/08 01:24:34;;;;;;;13.63;7.40;;;;;;;19.83;63.15;99012.41;5087956;28;20058;-61
2021/09/08 01:26:59;;;;;;;10.63;7.55;;;;;;;19.77;63.75;99012.19;5092648;28;20031;-61
2021/09/08 01:29:25;;;;;;;13.60;7.78;;;;;;;19.81;63.63;99007.31;5098363;28;20031;-61
2021/09/08 01:31:58;;;;;;;12.70;7.72;;;;;;;19.77;63.99;99001.63;5076393;28;20370;-61
2021/09/08 01:34:24;;;;;;;11.43;7.25;;;;;;;19.81;63.97;99001.25;5088751;28;20587;-61
2021/09/08 01:36:49;;;;;;;12.07;7.78;;;;;;;19.68;64.08;98983.50;5081310;28;20032;-61
2021/09/08 01:39:19;;;;;;;12.40;7.22;;;;;;;19.85;64.18;99000.63;5096057;28;20039;-61
2021/09/08 01:41:45;;;;;;;11.07;7.63;;;;;;;19.82;64.26;99003.66;5101642;28;20038;-61
2021/09/08 01:44:11;;;;;;;12.95;7.78;;;;;;;19.77;63.89;99000.81;5076526;28;20473;-61
2021/09/08 01:46:36;;;;;;;10.07;7.38;;;;;;;19.60;63.37;98973.88;5092118;28;20036;-61
2021/09/08 01:49:02;;;;;;;10.25;7.13;;;;;;;19.71;63.19;98998.91;5092540;28;20020;-61
2021/09/08 01:51:27;;;;;;;11.00;7.20;;;;;;;19.72;63.63;98992.63;5100304;28;20041;-61
2021/09/08 01:53:52;;;;;;;11.73;6.95;;;;;;;19.83;63.00;99007.13;5101373;28;20027;-61
2021/09/08 01:56:18;;;;;;;9.68;6.95;;;;;;;19.89;62.80;99004.50;5096529;28;20415;-61
2021/09/08 01:58:43;;;;;;;9.95;6.68;;;;;;;19.89;63.77;98996.59;5082510;28;20024;-61
2021/09/08 02:01:09;;;;;;;9.30;6.63;;;;;;;19.65;63.75;98960.13;5099782;28;20023;-61
2021/09/08 02:03:34;;;;;;;11.00;7.07;;;;;;;19.84;63.76;98996.41;5103182;28;20035;-61
2021/09/08 02:06:16;;;;;;;11.52;7.25;;;;;;;19.64;63.51;98969.88;5090955;28;20412;-61
2021/09/08 02:08:41;;;;;;;10.02;6.72;;;;;;;19.89;63.67;98995.78;5102691;28;20036;-61
2021/09/08 02:11:07;;;;;;;9.45;6.80;;;;;;;19.70;63.77;98971.72;5098540;28;20035;-61
2021/09/08 02:13:32;;;;;;;11.18;7.75;;;;;;;19.92;63.96;99001.50;5079410;28;20053;-60
2021/09/08 02:18:50;;;;;;;13.07;8.00;;;;;;;19.90;64.00;98992.16;5097918;28;20095;-61
2021/09/08 02:21:16;;;;;;;12.23;7.45;;;;;;;19.95;63.97;99003.75;5093939;28;20459;-61
2021/09/08 02:23:41;;;;;;;11.75;7.40;;;;;;;19.94;63.88;98996.03;5081170;28;20032;-61
2021/09/08 02:26:07;;;;;;;9.68;7.28;;;;;;;19.72;63.86;98953.88;5102710;28;20463;-61
2021/09/08 02:28:32;;;;;;;9.65;6.75;;;;;;;19.92;64.20;98990.94;5092707;28;20020;-61
2021/09/08 02:30:57;;;;;;;10.45;7.05;;;;;;;19.86;64.42;98994.38;5100212;28;20092;-60
2021/09/08 02:33:23;;;;;;;12.27;7.90;;;;;;;19.85;64.59;98995.38;5074381;28;20054;-61
2021/09/08 02:35:50;;;;;;;11.32;6.82;;;;;;;19.95;64.33;98997.63;5076749;28;20389;-61
2021/09/08 02:38:15;;;;;;;13.07;7.35;;;;;;;19.97;64.92;98993.81;5103736;27;20035;-61
2021/09/08 02:40:41;;;;;;;10.25;7.22;;;;;;;19.98;65.13;98994.63;5072484;28;20366;-61
2021/09/08 02:43:06;;;;;;;10.88;7.35;;;;;;;19.82;64.47;98956.16;5092630;28;20362;-61
2021/09/08 02:45:32;;;;;;;12.88;7.00;;;;;;;19.99;64.58;98993.63;5098578;28;20085;-61
2021/09/08 02:47:57;;;;;;;11.13;7.50;;;;;;;19.77;64.59;98972.59;5074049;28;20020;-60
2021/09/08 02:50:22;;;;;;;10.98;7.95;;;;;;;19.95;64.80;99001.09;5095439;28;21374;-60
2021/09/08 02:52:48;;;;;;;10.95;7.22;;;;;;;19.74;64.82;98959.78;5077109;28;20053;-61
2021/09/08 02:55:13;;;;;;;9.90;7.18;;;;;;;19.85;65.33;98973.44;5059450;28;20028;-61
2021/09/08 02:57:38;;;;;;;10.98;7.15;;;;;;;19.73;65.23;98960.81;5101930;28;20533;-61
2021/09/08 03:00:04;;;;;;;12.45;7.22;;;;;;;19.74;64.85;98967.72;5098813;28;20032;-61
2021/09/08 03:02:30;;;;;;;13.88;7.18;;;;;;;19.83;65.58;98993.94;5098375;28;20023;-61
2021/09/08 03:04:55;;;;;;;10.55;7.70;;;;;;;19.65;65.33;98955.66;5096159;28;20020;-61
2021/09/08 03:07:20;;;;;;;10.57;7.15;;;;;;;19.97;64.74;98995.63;5098033;28;20118;-61
2021/09/08 03:09:46;;;;;;;12.13;8.20;;;;;;;19.93;65.07;98995.22;5097109;28;20039;-61
2021/09/08 03:12:11;;;;;;;9.52;6.85;;;;;;;19.84;65.21;98993.75;5101492;28;20492;-61
2021/09/08 03:14:37;;;;;;;10.25;7.57;;;;;;;19.62;65.38;98969.22;5100130;28;20513;-60
2021/09/08 03:17:02;;;;;;;9.52;7.28;;;;;;;19.86;65.33;98998.81;5104320;28;20080;-60
2021/09/08 03:19:28;;;;;;;11.70;7.68;;;;;;;19.59;64.95;98956.44;5086760;28;20303;-60
2021/09/08 03:21:53;;;;;;;10.43;8.07;;;;;;;19.74;65.54;98985.38;5100154;28;20024;-60
2021/09/08 03:24:18;;;;;;;11.10;7.93;;;;;;;19.84;65.47;98996.41;5065429;28;20096;-61
2021/09/08 03:26:44;;;;;;;11.73;7.75;;;;;;;19.88;65.62;98996.81;5102254;28;20035;-61
2021/09/08 03:29:09;;;;;;;10.50;8.07;;;;;;;19.58;65.76;98970.63;5104692;28;20107;-60
2021/09/08 03:31:34;;;;;;;10.93;7.72;;;;;;;19.70;65.60;98992.81;5077753;28;20586;-60
2021/09/08 03:34:00;;;;;;;10.75;7.75;;;;;;;19.38;66.03;98968.72;5095954;28;20046;-61
2021/09/08 03:36:25;;;;;;;11.18;7.70;;;;;;;19.54;66.37;99001.84;5079667;28;20107;-61
2021/09/08 03:38:50;;;;;;;12.13;8.48;;;;;;;19.68;65.86;98997.47;5094181;28;20490;-60
2021/09/08 03:41:16;;;;;;;10.90;8.07;;;;;;;19.71;65.57;99009.47;5093786;28;20031;-61
2021/09/08 03:43:41;;;;;;;10.77;7.93;;;;;;;19.73;65.17;98999.56;5081186;28;20032;-61
2021/09/08 03:46:07;;;;;;;13.35;9.00;;;;;;;19.69;65.33;99009.66;5095226;28;20350;-61
2021/09/08 03:48:33;;;;;;;12.35;8.48;;;;;;;19.66;65.21;98998.66;5103654;28;20035;-60
2021/09/08 03:50:59;;;;;;;12.25;8.98;;;;;;;19.39;65.52;98980.06;5098047;28;20024;-61
2021/09/08 03:53:24;;;;;;;14.10;9.07;;;;;;;19.68;65.00;99009.88;5101162;28;20158;-61
2021/09/08 03:55:49;;;;;;;13.75;8.82;;;;;;;19.76;64.89;99015.00;5096759;28;20558;-61
2021/09/08 03:58:15;;;;;;;13.07;9.07;;;;;;;19.69;64.75;99008.84;5096957;28;20046;-61
2021/09/08 04:00:40;;;;;;;12.68;8.88;;;;;;;19.64;64.93;99006.81;5095718;28;20061;-61
2021/09/08 04:03:05;;;;;;;13.63;9.40;;;;;;;19.59;65.50;99010.00;5100366;28;20416;-61
2021/09/08 04:05:31;;;;;;;13.18;9.35;;;;;;;19.55;65.31;99008.75;5069130;28;20407;-61
2021/09/08 04:07:56;;;;;;;12.48;8.82;;;;;;;19.52;65.89;99013.63;5096345;28;20382;-61
2021/09/08 04:10:23;;;;;;;15.07;9.27;;;;;;;19.61;65.17;99001.09;5096830;28;20023;-61
2021/09/08 04:12:49;;;;;;;13.50;8.85;;;;;;;19.68;65.09;99002.75;5071722;28;20122;-61
2021/09/08 04:15:14;;;;;;;14.98;9.30;;;;;;;19.75;64.97;99001.00;5103410;28;20260;-61
2021/09/08 04:17:40;;;;;;;15.23;8.90;;;;;;;19.70;65.03;98994.66;5097174;28;20925;-61
2021/09/08 04:20:05;;;;;;;12.07;9.00;;;;;;;19.72;64.92;98997.91;5098448;28;20034;-61
2021/09/08 04:22:31;;;;;;;13.63;9.10;;;;;;;19.54;64.74;98964.13;5093999;28;20515;-61
2021/09/08 04:24:56;;;;;;;11.77;8.60;;;;;;;19.66;64.97;98998.66;5092949;28;20020;-61
2021/09/08 04:27:22;;;;;;;13.30;8.82;;;;;;;19.70;64.72;99005.22;5101476;28;20034;-61
2021/09/08 04:29:47;;;;;;;11.82;8.30;;;;;;;19.72;64.82;98993.44;5095727;28;20047;-61
2021/09/08 04:32:12;;;;;;;14.75;9.25;;;;;;;19.68;64.79;98988.75;5092572;28;20159;-61
2021/09/08 04:34:38;;;;;;;12.15;8.55;;;;;;;19.77;64.67;99003.47;5091202;28;20762;-60
2021/09/08 04:37:03;;;;;;;13.43;8.57;;;;;;;19.74;64.70;98999.38;5095535;28;20042;-61
2021/09/08 04:39:29;;;;;;;12.35;8.48;;;;;;;19.82;64.52;98997.56;5099209;28;20414;-61
2021/09/08 04:41:54;;;;;;;13.68;8.73;;;;;;;19.84;64.06;98999.03;5095834;28;20032;-60
2021/09/08 04:44:19;;;;;;;13.20;8.43;;;;;;;19.60;65.11;98976.53;5095422;28;20926;-61
2021/09/08 04:46:45;;;;;;;11.07;8.25;;;;;;;19.72;65.23;98996.06;5095265;28;20142;-61
2021/09/08 04:49:10;;;;;;;12.73;8.68;;;;;;;19.59;65.64;99003.91;5080765;28;20034;-60
2021/09/08 04:51:36;;;;;;;13.60;8.10;;;;;;;19.57;65.44;99011.22;5098886;28;20599;-61
2021/09/08 04:54:01;;;;;;;11.00;8.65;;;;;;;19.45;64.87;98983.75;5073323;28;20032;-61
2021/09/08 04:56:27;;;;;;;11.00;8.18;;;;;;;19.41;65.68;98980.69;5100391;28;20028;-61
2021/09/08 04:58:52;;;;;;;9.95;7.75;;;;;;;19.64;65.06;99006.81;5099759;28;20110;-60
2021/09/08 05:01:18;;;;;;;10.57;7.88;;;;;;;19.61;65.19;98999.25;5080345;28;20084;-61
2021/09/08 05:03:43;;;;;;;13.48;8.35;;;;;;;19.68;65.19;99004.59;5097163;28;20397;-61
2021/09/08 05:06:08;;;;;;;10.88;8.38;;;;;;;19.57;65.39;98993.56;5094799;28;20023;-61
2021/09/08 05:08:34;;;;;;;13.55;8.27;;;;;;;19.61;64.80;98996.63;5094670;28;20031;-60
2021/09/08 05:10:59;;;;;;;11.88;8.00;;;;;;;19.68;64.22;99000.13;5097866;28;20428;-61
2021/09/08 05:13:25;;;;;;;12.90;8.07;;;;;;;19.71;64.13;99010.28;5076078;28;20044;-61
2021/09/08 05:15:50;;;;;;;13.65;8.38;;;;;;;19.65;64.45;99000.50;5090116;28;20046;-60
2021/09/08 05:18:16;;;;;;;12.48;8.82;;;;;;;19.43;64.32;98983.13;5091897;28;20024;-61
2021/09/08 05:20:42;;;;;;;16.50;9.38;;;;;;;19.40;63.97;98974.59;5087176;28;20031;-61
2021/09/08 05:23:08;;;;;;;14.40;9.32;;;;;;;19.62;64.05;99008.78;5104598;28;20081;-60
2021/09/08 05:25:33;;;;;;;18.45;9.35;;;;;;;19.64;64.35;99014.72;5100941;28;20110;-61
2021/09/08 05:27:59;;;;;;;21.75;9.27;;;;;;;19.69;64.59;99014.13;5098642;28;20051;-60
2021/09/08 05:30:24;;;;;;;23.45;9.20;;;;;;;19.73;64.09;99018.03;5104107;28;20115;-60
2021/09/08 05:32:49;;;;;;;28.10;10.50;;;;;;;19.54;64.04;98979.94;5081830;28;20071;-61
2021/09/08 05:35:15;;;;;;;25.33;9.75;;;;;;;19.45;64.60;98976.63;5097116;28;20145;-61
2021/09/08 05:37:41;;;;;;;18.10;9.32;;;;;;;19.67;64.55;99014.31;5096540;28;20070;-61
2021/09/08 05:40:08;;;;;;;20.42;9.43;;;;;;;19.66;65.05;99010.06;5093659;28;20496;-61
2021/09/08 05:42:34;;;;;;;16.75;9.25;;;;;;;19.54;65.29;99027.41;5096615;28;20108;-61
2021/09/08 05:44:59;;;;;;;15.50;9.45;;;;;;;19.52;66.78;99029.44;5096234;28;20035;-60
2021/09/08 05:47:25;;;;;;;14.82;9.07;;;;;;;19.57;67.04;99029.69;5090217;28;20513;-61
2021/09/08 05:49:50;;;;;;;12.10;8.77;;;;;;;19.67;66.80;99024.06;5092152;28;20034;-60
2021/09/08 05:52:16;;;;;;;12.40;9.00;;;;;;;19.70;67.53;99029.75;5095810;28;20032;-61
2021/09/08 05:54:41;;;;;;;16.40;9.43;;;;;;;19.62;67.80;99035.16;5074417;28;20348;-60
2021/09/08 05:57:06;;;;;;;12.15;8.95;;;;;;;19.55;67.23;99026.44;5103885;28;20462;-60
2021/09/08 05:59:32;;;;;;;14.70;8.70;;;;;;;19.55;67.50;99031.69;5104538;27;20137;-61
2021/09/08 06:01:57;;;;;;;11.98;8.38;;;;;;;19.69;67.54;99036.03;5104358;28;20700;-61
2021/09/08 06:04:22;;;;;;;13.52;8.45;;;;;;;19.83;67.21;99030.88;5096344;28;20048;-60
2021/09/08 06:06:48;;;;;;;12.43;8.80;;;;;;;19.63;67.61;98996.44;5106405;28;20678;-60
2021/09/08 06:09:13;;;;;;;11.48;8.23;;;;;;;19.92;67.39;99027.06;5101162;28;20060;-61
2021/09/08 06:11:39;;;;;;;12.40;8.10;;;;;;;19.93;67.09;99023.41;5104060;28;20108;-60
2021/09/08 06:14:04;;;;;;;12.77;8.32;;;;;;;19.93;66.93;99011.06;5104189;28;20039;-62
2021/09/08 06:16:29;;;;;;;12.13;8.48;;;;;;;19.69;68.43;98985.91;5076911;28;20024;-60
2021/09/08 06:18:55;;;;;;;12.52;8.63;;;;;;;19.88;68.85;99020.56;5100341;28;20082;-60
2021/09/08 06:21:21;;;;;;;12.95;7.70;;;;;;;19.97;68.53;99016.75;5100062;28;20451;-61
2021/09/08 06:23:47;;;;;;;14.90;8.35;;;;;;;19.93;68.94;99026.88;5101206;28;20044;-60
2021/09/08 06:26:12;;;;;;;9.85;7.85;;;;;;;19.92;69.07;99021.78;5098346;28;20051;-60
2021/09/08 06:28:38;;;;;;;11.05;9.18;;;;;;;19.86;68.92;99018.13;5098246;28;20320;-60
2021/09/08 06:31:03;;;;;;;11.48;8.32;;;;;;;19.85;68.73;99018.31;5103880;28;20111;-60
2021/09/08 06:33:28;;;;;;;13.02;8.00;;;;;;;19.84;68.49;99028.06;5093280;28;20023;-60
2021/09/08 06:35:54;;;;;;;11.27;8.10;;;;;;;19.85;68.61;99023.59;5100289;28;20099;-61
2021/09/08 06:38:19;;;;;;;11.63;8.25;;;;;;;19.57;68.94;98993.56;5069486;28;20115;-61
2021/09/08 06:40:45;;;;;;;11.80;8.15;;;;;;;19.54;69.51;98982.59;5076806;28;20084;-60
2021/09/08 06:43:10;;;;;;;11.32;8.60;;;;;;;19.74;69.79;99015.19;5096041;28;20651;-60
2021/09/08 06:45:35;;;;;;;10.02;8.25;;;;;;;19.83;70.02;99018.50;5072111;28;20176;-60
2021/09/08 06:48:01;;;;;;;11.48;8.95;;;;;;;19.88;70.07;99017.94;5101023;28;20031;-61
2021/09/08 06:50:26;;;;;;;11.93;8.50;;;;;;;19.91;69.97;99013.03;5096233;28;20459;-61
2021/09/08 06:52:51;;;;;;;13.65;8.95;;;;;;;19.88;70.05;99007.38;5102512;28;20110;-60
2021/09/08 06:55:17;;;;;;;14.65;8.50;;;;;;;20.01;69.39;99017.97;5103048;28;20031;-60
2021/09/08 06:57:42;;;;;;;12.27;8.55;;;;;;;19.87;68.86;98982.78;5103478;28;20031;-60
2021/09/08 07:00:09;;;;;;;10.45;8.27;;;;;;;19.86;68.65;98982.97;5102537;28;20485;-61
2021/09/08 07:02:35;;;;;;;12.27;8.13;;;;;;;20.08;67.54;99021.47;5101187;28;20055;-60
2021/09/08 07:05:00;;;;;;;12.38;8.27;;;;;;;20.17;66.88;99017.66;5078826;28;20078;-61
2021/09/08 07:07:25;;;;;;;10.05;7.22;;;;;;;20.23;66.22;99025.81;5083261;28;20031;-60
2021/09/08 07:09:51;;;;;;;12.45;8.40;;;;;;;20.09;65.61;98985.31;5100827;28;20030;-60
2021/09/08 07:12:16;;;;;;;11.52;7.60;;;;;;;20.29;65.23;99015.25;5097520;28;20027;-60
2021/09/08 07:14:41;;;;;;;11.77;8.27;;;;;;;20.33;65.11;99005.09;5071394;28;20039;-61
2021/09/08 07:17:07;;;;;;;11.70;7.97;;;;;;;20.43;64.79;99013.47;5101419;28;20027;-60
2021/09/08 07:19:33;;;;;;;11.27;7.30;;;;;;;20.49;64.50;99012.66;5101566;28;20043;-60
2021/09/08 07:21:59;;;;;;;10.82;8.07;;;;;;;20.64;64.39;99012.53;5092855;28;20729;-60
2021/09/08 07:24:24;;;;;;;11.88;8.10;;;;;;;20.48;64.08;98973.25;5084724;28;20088;-60
2021/09/08 07:26:50;;;;;;;11.10;7.95;;;;;;;20.82;64.55;99014.59;5099469;28;20022;-60
2021/09/08 07:29:15;;;;;;;9.63;7.90;;;;;;;20.80;64.74;99006.06;5091498;28;20047;-61
2021/09/08 07:31:40;;;;;;;10.98;7.88;;;;;;;20.52;64.70;98977.94;5082915;28;20046;-60
2021/09/08 07:34:06;;;;;;;10.15;7.43;;;;;;;20.76;64.29;99014.59;5098445;28;20332;-60
2021/09/08 07:36:31;;;;;;;13.73;8.43;;;;;;;20.75;65.14;99008.47;5083702;28;20031;-62
2021/09/08 07:38:57;;;;;;;10.77;7.85;;;;;;;20.87;64.95;99011.38;5089606;28;20053;-61
2021/09/08 07:41:22;;;;;;;10.95;7.45;;;;;;;20.66;63.10;98978.81;5097296;28;20023;-61
2021/09/08 07:43:48;;;;;;;11.93;8.15;;;;;;;20.68;63.90;98984.72;5092619;28;20125;-61
2021/09/08 07:46:14;;;;;;;11.63;7.88;;;;;;;20.93;62.68;99019.28;5099048;28;20054;-61
2021/09/08 07:48:40;;;;;;;11.52;8.25;;;;;;;20.85;63.95;99008.13;5096750;28;20115;-60
2021/09/08 07:51:06;;;;;;;12.45;8.43;;;;;;;20.93;64.02;99021.91;5092775;28;20028;-61
2021/09/08 07:53:33;;;;;;;10.93;7.93;;;;;;;20.92;63.22;99022.16;5066800;28;20020;-60
2021/09/08 07:55:58;;;;;;;13.43;8.68;;;;;;;20.89;63.63;99022.53;5092021;28;20427;-60
2021/09/08 07:58:24;;;;;;;12.27;8.02;;;;;;;20.92;62.18;99009.75;5078869;28;20265;-61
2021/09/08 08:00:49;;;;;;;11.05;7.70;;;;;;;21.00;62.69;99029.06;5077450;28;20031;-60
2021/09/08 08:03:14;;;;;;;13.40;7.18;;;;;;;20.97;60.63;99022.34;5099382;28;20225;-61
2021/09/08 08:05:40;;;;;;;10.55;7.30;;;;;;;21.12;60.70;99030.09;5080191;28;20028;-60
2021/09/08 08:08:05;;;;;;;11.95;7.30;;;;;;;20.97;59.99;99030.25;5096638;28;20111;-61
2021/09/08 08:10:31;;;;;;;12.10;7.40;;;;;;;20.89;60.69;99017.25;5093536;28;20030;-60
2021/09/08 08:12:57;;;;;;;10.80;7.07;;;;;;;21.07;59.69;99028.03;5085974;28;20080;-61
2021/09/08 08:15:23;;;;;;;11.00;6.68;;;;;;;21.09;59.25;99027.84;5089321;28;20469;-61
2021/09/08 08:17:49;;;;;;;11.45;6.63;;;;;;;20.98;58.71;99000.19;5068835;28;20081;-61
2021/09/08 08:20:16;;;;;;;10.95;6.68;;;;;;;21.20;59.26;99027.22;5082485;28;20023;-61
2021/09/08 08:22:42;;;;;;;10.77;7.05;;;;;;;21.27;57.19;99028.06;5073726;28;20114;-60
2021/09/08 08:25:10;;;;;;;8.50;6.18;;;;;;;21.30;54.44;99026.81;5098115;28;20050;-61
2021/09/08 08:27:35;;;;;;;9.65;6.25;;;;;;;21.22;54.23;98988.19;5099978;28;20804;-61
2021/09/08 08:30:02;;;;;;;10.85;6.38;;;;;;;21.54;53.82;99022.78;5097109;28;20026;-60
2021/09/08 08:32:27;;;;;;;11.65;6.80;;;;;;;21.65;53.73;99018.69;5094284;28;20039;-61
2021/09/08 08:34:53;;;;;;;8.90;6.20;;;;;;;21.65;51.95;99014.22;5100547;28;20023;-60
2021/09/08 08:37:19;;;;;;;10.25;6.57;;;;;;;21.75;51.50;99012.97;5076232;28;20032;-61
2021/09/08 08:39:44;;;;;;;12.98;6.97;;;;;;;21.80;51.67;99006.03;5089035;28;20335;-61
2021/09/08 08:42:21;;;;;;;10.05;6.45;;;;;;;21.95;51.81;99011.06;5100135;28;20493;-61
2021/09/08 08:44:47;;;;;;;10.15;5.90;;;;;;;22.02;50.92;99013.69;5091144;28;20024;-61
2021/09/08 08:47:12;;;;;;;10.02;6.10;;;;;;;21.99;52.48;99008.81;5096592;28;20058;-62
2021/09/08 08:49:38;;;;;;;11.60;6.60;;;;;;;22.05;52.44;99016.75;5084647;28;20031;-60
2021/09/08 08:52:03;;;;;;;12.85;6.72;;;;;;;22.18;52.40;99020.38;5076277;28;20027;-61
2021/09/08 08:54:29;;;;;;;9.75;6.55;;;;;;;22.16;51.26;99012.63;5077918;28;20096;-61
2021/09/08 08:56:54;;;;;;;11.80;6.88;;;;;;;22.30;50.90;99012.59;5096287;28;20035;-61
2021/09/08 08:59:20;;;;;;;10.95;7.05;;;;;;;22.15;50.75;99002.25;5080592;28;20052;-61
2021/09/08 09:01:46;;;;;;;12.13;6.90;;;;;;;22.24;51.74;99011.56;5102966;28;20096;-61
2021/09/08 09:04:17;;;;;;;11.77;7.00;;;;;;;22.16;49.38;98983.50;5074392;28;20031;-61
2021/09/08 09:06:46;;;;;;;9.13;6.25;;;;;;;22.30;49.04;99005.47;5065515;28;20023;-61
2021/09/08 09:09:14;;;;;;;;;;;;;;;22.36;48.98;99004.63;5099306;28;20457;-61
2021/09/08 09:11:41;;;;;;;11.05;6.35;;;;;;;22.42;48.51;99009.06;5081911;28;19918;-60
2021/09/08 09:14:08;;;;;;;11.00;6.53;;;;;;;22.42;49.66;98995.81;5073746;28;20027;-61
2021/09/08 09:16:35;;;;;;;9.10;6.65;;;;;;;22.39;46.95;98996.22;5097661;28;20024;-60
2021/09/08 09:19:02;;;;;;;9.10;6.47;;;;;;;22.48;45.67;98996.00;5099737;28;20023;-61
2021/09/08 09:21:27;;;;;;;9.25;6.20;;;;;;;22.44;45.50;98998.25;5090081;28;20413;-61
2021/09/08 09:23:58;;;;;;;9.98;6.10;;;;;;;22.32;45.89;98965.50;5071768;28;20036;-60
2021/09/08 09:26:25;;;;;;;9.38;6.00;;;;;;;22.53;46.08;98989.03;5098067;28;20023;-60
2021/09/08 09:28:52;;;;;;;9.63;6.13;;;;;;;22.57;45.69;98994.72;5097565;28;20028;-61
2021/09/08 09:31:27;;;;;;;13.15;6.15;;;;;;;22.78;44.52;98996.19;5098193;28;20028;-61
2021/09/08 09:33:54;;;;;;;8.65;6.10;;;;;;;22.86;42.14;98998.59;5100941;28;20076;-61
2021/09/08 09:36:24;;;;;;;9.10;6.10;;;;;;;23.07;42.81;98999.28;5080386;28;20035;-61
2021/09/08 09:38:51;;;;;;;9.70;6.20;;;;;;;23.02;42.47;98968.91;5094590;28;20949;-61
2021/09/08 09:41:27;;;;;;;10.13;6.55;;;;;;;23.23;41.63;98986.28;5093139;28;20034;-61
2021/09/08 09:43:53;;;;;;;10.88;6.25;;;;;;;22.87;42.97;98931.28;5084594;28;20106;-60
2021/09/08 09:46:19;;;;;;;9.85;6.75;;;;;;;22.91;45.30;98963.47;5092348;28;20040;-60
2021/09/08 09:48:44;;;;;;;11.60;6.53;;;;;;;23.18;45.00;98994.09;5095792;28;20030;-61
2021/09/08 09:51:13;;;;;;;9.43;5.50;;;;;;;23.36;44.20;98998.63;5098718;28;20024;-61
2021/09/08 09:53:39;;;;;;;9.77;6.15;;;;;;;23.53;41.50;98998.88;5099527;28;20719;-60
2021/09/08 09:56:04;;;;;;;10.20;6.82;;;;;;;23.63;40.63;98992.25;5078994;28;20019;-61
2021/09/08 09:58:30;;;;;;;8.43;6.05;;;;;;;23.53;45.87;98990.09;5078345;28;20497;-60
2021/09/08 10:00:55;;;;;;;10.48;6.57;;;;;;;23.61;41.10;98995.13;5075126;28;20036;-61
2021/09/08 10:03:22;;;;;;;9.75;6.75;;;;;;;23.70;40.79;98991.16;5098810;28;20026;-61
2021/09/08 10:05:48;;;;;;;9.80;6.82;;;;;;;23.69;40.38;98984.19;5069435;28;22109;-61
2021/09/08 10:08:17;;;;;;;17.33;7.25;;;;;;;23.79;41.00;98983.72;5096782;28;20499;-60
2021/09/08 10:10:43;;;;;;;9.63;6.50;;;;;;;23.79;40.76;98983.72;5066496;28;20032;-61
2021/09/08 10:13:29;;;;;;;10.15;6.93;;;;;;;23.58;40.11;98953.09;5077228;28;20060;-60
2021/09/08 10:15:55;;;;;;;10.02;6.97;;;;;;;23.83;40.24;98963.66;5098252;28;20032;-62
2021/09/08 10:18:26;;;;;;;12.27;6.47;;;;;;;23.91;41.13;98970.50;5076957;28;20100;-61
2021/09/08 10:21:14;;;;;;;10.77;6.75;;;;;;;24.06;39.92;98976.28;5089986;28;20593;-60
2021/09/08 10:23:44;;;;;;;11.10;6.93;;;;;;;23.80;38.75;98940.22;5093922;28;20101;-61
2021/09/08 10:26:12;;;;;;;9.93;6.55;;;;;;;23.91;38.85;98963.38;5073621;28;20027;-61
2021/09/08 10:28:38;;;;;;;10.75;6.80;;;;;;;24.02;39.42;98966.31;5072581;28;20132;-60
2021/09/08 10:31:04;;;;;;;9.73;6.70;;;;;;;24.03;39.78;98963.44;5074638;28;20072;-61
2021/09/08 10:33:30;;;;;;;10.07;7.30;;;;;;;24.01;39.38;98957.53;5093595;28;20024;-60
2021/09/08 10:35:56;;;;;;;10.23;6.80;;;;;;;24.18;39.61;98963.03;5073925;28;20047;-61
2021/09/08 10:38:23;;;;;;;9.45;7.15;;;;;;;24.26;38.93;98954.75;5074784;28;20028;-61
2021/09/08 10:40:50;;;;;;;11.27;6.57;;;;;;;24.08;39.37;98939.66;5070279;28;20028;-61
2021/09/08 10:43:26;;;;;;;11.13;6.65;;;;;;;24.19;39.13;98964.66;5073033;28;20024;-60
2021/09/08 10:45:53;;;;;;;11.23;6.78;;;;;;;24.24;39.17;98940.91;5076459;28;20020;-61
2021/09/08 10:48:45;;;;;;;11.85;6.50;;;;;;;24.33;38.72;98950.16;5073529;28;20028;-60
2021/09/08 10:51:43;;;;;;;10.07;6.65;;;;;;;24.20;38.32;98939.69;5072081;28;20035;-61
2021/09/08 10:54:08;;;;;;;11.27;7.20;;;;;;;24.34;37.55;98940.34;5087513;27;20386;-61
2021/09/08 10:56:45;;;;;;;10.70;6.60;;;;;;;24.09;37.66;98924.53;5081480;28;20445;-61
2021/09/08 10:59:11;;;;;;;10.30;6.68;;;;;;;24.28;37.51;98954.53;5076190;28;20036;-61
2021/09/08 11:01:37;;;;;;;9.65;6.68;;;;;;;24.26;37.91;98938.00;5096992;28;20031;-61
2021/09/08 11:04:03;;;;;;;9.57;6.53;;;;;;;24.27;37.57;98947.59;5089523;28;20401;-61
2021/09/08 11:06:37;;;;;;;10.35;6.50;;;;;;;24.37;38.28;98942.56;5088382;28;20034;-61
2021/09/08 11:09:05;;;;;;;12.70;6.82;;;;;;;24.45;37.96;98952.84;5088040;28;20032;-61
2021/09/08 11:11:31;;;;;;;10.90;6.88;;;;;;;24.48;38.24;98946.28;5090939;28;20087;-61
2021/09/08 11:13:57;;;;;;;12.45;7.10;;;;;;;24.31;37.75;98915.03;5097650;28;20027;-61
2021/09/08 11:16:23;;;;;;;10.80;7.10;;;;;;;24.61;37.74;98945.31;5073416;28;20059;-61
2021/09/08 11:18:50;;;;;;;14.15;6.80;;;;;;;24.48;37.94;98941.78;5090027;28;20024;-60
2021/09/08 11:21:16;;;;;;;10.55;7.00;;;;;;;24.54;38.20;98932.09;5087664;28;20080;-60
2021/09/08 11:23:43;;;;;;;10.20;6.90;;;;;;;24.60;37.48;98941.00;5087535;28;20051;-61
2021/09/08 11:26:10;;;;;;;9.10;6.32;;;;;;;24.60;37.92;98938.34;5101611;28;20020;-61